Time;durP1;ratioP1;P1;durP2;ratioP2;P2;SDS_P1;SDS_P2;PMS_P1;PMS_P2;Temp;Humidity;BMP_temperature;BMP_pressure;BME280_temperature;BME280_humidity;BME280_pressure;Samples;Min_cycle;Max_cycle;Signal;HPM_P1;HPM_P2
2022/01/05 00:01:29;;;;;;;9.45;2.63;;;;;;;;;;5033755;28;20305;-51
2022/01/05 00:03:55;;;;;;;5.15;2.55;;;;;;;;;;5033991;28;20241;-52
2022/01/05 00:06:20;;;;;;;4.37;2.80;;;;;;;;;;5033901;28;20640;-52
2022/01/05 00:08:46;;;;;;;4.03;2.10;;;;;;;;;;5033602;28;20782;-53
2022/01/05 00:11:13;;;;;;;7.23;2.83;;;;;;;;;;5033661;28;20441;-51
2022/01/05 00:13:39;;;;;;;9.85;3.70;;;;;;;;;;5033757;28;20471;-51
2022/01/05 00:16:05;;;;;;;8.40;3.83;;;;;;;;;;5033896;28;20178;-51
2022/01/05 00:18:32;;;;;;;7.50;3.83;;;;;;;;;;5033369;28;20542;-54
2022/01/05 00:20:59;;;;;;;6.78;4.03;;;;;;;;;;5033574;28;20183;-51
2022/01/05 00:23:25;;;;;;;5.57;4.00;;;;;;;;;;5033604;28;20172;-53
2022/01/05 00:25:51;;;;;;;4.95;3.92;;;;;;;;;;5033445;28;20686;-51
2022/01/05 00:28:18;;;;;;;6.90;3.93;;;;;;;;;;5033124;28;20171;-52
2022/01/05 00:30:44;;;;;;;5.10;3.53;;;;;;;;;;5033345;28;20429;-51
2022/01/05 00:33:10;;;;;;;7.40;3.20;;;;;;;;;;5033457;28;20164;-51
2022/01/05 00:35:36;;;;;;;5.27;3.30;;;;;;;;;;5033366;28;20410;-51
2022/01/05 00:38:02;;;;;;;10.38;3.58;;;;;;;;;;5033005;28;20966;-52
2022/01/05 00:40:28;;;;;;;10.57;3.57;;;;;;;;;;5033149;28;20194;-51
2022/01/05 00:42:54;;;;;;;4.95;2.85;;;;;;;;;;5033165;28;20399;-51
2022/01/05 00:45:20;;;;;;;4.50;4.10;;;;;;;;;;5033083;28;20682;-52
2022/01/05 00:47:46;;;;;;;6.07;4.13;;;;;;;;;;5033077;28;20498;-52
2022/01/05 00:50:12;;;;;;;7.60;4.23;;;;;;;;;;5033191;28;20687;-52
2022/01/05 00:52:38;;;;;;;6.63;4.20;;;;;;;;;;5033015;28;20820;-52
2022/01/05 00:55:04;;;;;;;5.53;3.55;;;;;;;;;;5032897;28;20398;-52
2022/01/05 00:57:30;;;;;;;14.40;4.85;;;;;;;;;;5032371;28;20195;-52
2022/01/05 00:59:56;;;;;;;16.20;3.80;;;;;;;;;;5032829;28;20164;-52
2022/01/05 01:02:22;;;;;;;5.47;3.30;;;;;;;;;;5032800;28;20555;-53
2022/01/05 01:04:48;;;;;;;8.53;3.50;;;;;;;;;;5032915;28;20739;-51
2022/01/05 01:07:14;;;;;;;4.13;3.75;;;;;;;;;;5032484;28;20429;-51
2022/01/05 01:09:40;;;;;;;6.80;4.30;;;;;;;;;;5032680;28;20164;-51
2022/01/05 01:12:06;;;;;;;5.18;4.57;;;;;;;;;;5032488;28;20922;-52
2022/01/05 01:14:32;;;;;;;3.88;3.03;;;;;;;;;;5032643;28;20298;-51
2022/01/05 01:16:58;;;;;;;6.40;4.10;;;;;;;;;;5032441;28;20672;-51
2022/01/05 01:19:24;;;;;;;12.07;4.40;;;;;;;;;;5032934;28;20390;-51
2022/01/05 01:21:50;;;;;;;4.40;3.97;;;;;;;;;;5032413;28;20438;-52
2022/01/05 01:24:16;;;;;;;8.50;5.10;;;;;;;;;;5032471;28;20399;-51
2022/01/05 01:26:42;;;;;;;14.07;4.93;;;;;;;;;;5032071;28;20826;-52
2022/01/05 01:29:08;;;;;;;5.50;4.50;;;;;;;;;;5032368;28;20402;-52
2022/01/05 01:31:34;;;;;;;10.45;5.22;;;;;;;;;;5032244;28;20423;-53
2022/01/05 01:34:00;;;;;;;10.27;5.20;;;;;;;;;;5032276;28;20164;-52
2022/01/05 01:36:26;;;;;;;11.73;5.30;;;;;;;;;;5032098;28;20242;-53
2022/01/05 01:38:52;;;;;;;14.60;6.93;;;;;;;;;;5032048;28;20404;-51
2022/01/05 01:41:18;;;;;;;7.80;5.97;;;;;;;;;;5032070;28;20214;-51
2022/01/05 01:43:44;;;;;;;13.30;6.97;;;;;;;;;;5032017;28;20168;-51
2022/01/05 01:46:10;;;;;;;10.50;5.70;;;;;;;;;;5032133;28;20172;-51
2022/01/05 01:48:36;;;;;;;9.77;6.10;;;;;;;;;;5031855;28;20171;-52
2022/01/05 01:51:02;;;;;;;13.35;7.43;;;;;;;;;;5032011;28;20840;-51
2022/01/05 01:53:28;;;;;;;12.95;7.20;;;;;;;;;;5031981;28;20159;-51
2022/01/05 01:55:55;;;;;;;14.50;7.00;;;;;;;;;;5031975;28;20507;-51
2022/01/05 01:58:22;;;;;;;16.83;7.22;;;;;;;;;;5031703;28;20406;-51
2022/01/05 02:00:48;;;;;;;10.73;7.07;;;;;;;;;;5030237;28;20201;-52
2022/01/05 02:03:15;;;;;;;17.40;7.72;;;;;;;;;;5031333;28;20177;-52
2022/01/05 02:05:41;;;;;;;14.77;7.50;;;;;;;;;;5031127;28;20170;-52
2022/01/05 02:08:07;;;;;;;12.00;6.47;;;;;;;;;;5031504;28;20168;-52
2022/01/05 02:10:33;;;;;;;19.17;7.57;;;;;;;;;;5031163;28;20209;-52
2022/01/05 02:12:59;;;;;;;14.07;7.05;;;;;;;;;;5031668;28;20413;-51
2022/01/05 02:15:26;;;;;;;13.68;7.03;;;;;;;;;;5031828;28;20238;-52
2022/01/05 02:20:31;;;;;;;14.65;7.32;;;;;;;;;;5031778;28;20192;-52
2022/01/05 02:22:57;;;;;;;9.77;5.85;;;;;;;;;;5030319;28;20176;-52
2022/01/05 02:25:24;;;;;;;11.73;6.90;;;;;;;;;;5031733;28;20229;-51
2022/01/05 02:27:51;;;;;;;15.07;7.40;;;;;;;;;;5031279;28;20887;-51
2022/01/05 02:30:24;;;;;;;17.70;7.35;;;;;;;;;;5031574;28;20171;-51
2022/01/05 02:32:50;;;;;;;11.40;7.43;;;;;;;;;;5031566;28;20659;-52
2022/01/05 02:35:17;;;;;;;27.67;8.00;;;;;;;;;;5031542;28;20667;-51
2022/01/05 02:37:45;;;;;;;12.70;7.40;;;;;;;;;;5031056;28;20199;-52
2022/01/05 02:40:12;;;;;;;16.00;7.65;;;;;;;;;;5031487;28;20229;-51
2022/01/05 02:42:38;;;;;;;20.17;8.02;;;;;;;;;;5031571;28;20536;-51
2022/01/05 02:45:04;;;;;;;16.48;7.60;;;;;;;;;;5031373;28;20539;-51
2022/01/05 02:47:30;;;;;;;20.40;9.77;;;;;;;;;;5031191;28;20551;-51
2022/01/05 02:49:59;;;;;;;15.50;9.85;;;;;;;;;;5031475;28;20180;-51
2022/01/05 02:52:25;;;;;;;23.15;9.52;;;;;;;;;;5031377;28;20179;-52
2022/01/05 02:54:51;;;;;;;20.88;9.60;;;;;;;;;;5031619;28;20180;-52
2022/01/05 02:57:17;;;;;;;19.40;9.87;;;;;;;;;;5031103;28;20290;-53
2022/01/05 02:59:43;;;;;;;17.45;10.25;;;;;;;;;;5031341;28;20403;-53
2022/01/05 03:02:09;;;;;;;27.43;10.90;;;;;;;;;;5031335;28;20582;-52
2022/01/05 03:04:35;;;;;;;29.70;12.47;;;;;;;;;;5031293;28;20405;-52
2022/01/05 03:07:01;;;;;;;18.47;11.40;;;;;;;;;;5030975;28;20768;-51
2022/01/05 03:09:27;;;;;;;30.10;13.80;;;;;;;;;;5031318;28;20406;-51
2022/01/05 03:11:53;;;;;;;18.90;11.90;;;;;;;;;;5030719;28;20521;-51
2022/01/05 03:14:20;;;;;;;23.58;12.68;;;;;;;;;;5031293;28;20167;-51
2022/01/05 03:16:46;;;;;;;27.35;12.60;;;;;;;;;;5030864;28;20668;-51
2022/01/05 03:19:12;;;;;;;24.73;12.37;;;;;;;;;;5031246;28;20168;-51
2022/01/05 03:21:38;;;;;;;25.33;13.40;;;;;;;;;;5031411;28;20488;-51
2022/01/05 03:24:04;;;;;;;25.23;13.00;;;;;;;;;;5034752;28;20928;-51
2022/01/05 03:26:30;;;;;;;24.77;11.40;;;;;;;;;;5034379;28;20461;-51
2022/01/05 03:28:56;;;;;;;18.73;13.20;;;;;;;;;;5034631;28;20172;-51
2022/01/05 03:31:22;;;;;;;27.77;11.80;;;;;;;;;;5034603;28;20270;-52
2022/01/05 03:33:48;;;;;;;19.90;12.25;;;;;;;;;;5034539;28;20791;-51
2022/01/05 03:36:14;;;;;;;18.50;10.30;;;;;;;;;;5034294;28;20573;-51
2022/01/05 03:38:40;;;;;;;21.23;8.73;;;;;;;;;;5034408;28;20254;-51
2022/01/05 03:41:06;;;;;;;24.27;10.20;;;;;;;;;;5033059;28;20973;-51
2022/01/05 03:43:32;;;;;;;14.23;9.13;;;;;;;;;;5034307;28;20425;-53
2022/01/05 03:45:58;;;;;;;29.57;9.17;;;;;;;;;;5034320;28;20428;-51
2022/01/05 03:48:24;;;;;;;15.77;8.30;;;;;;;;;;5034046;28;20407;-51
2022/01/05 03:50:50;;;;;;;20.35;8.93;;;;;;;;;;5033949;28;20930;-51
2022/01/05 03:53:17;;;;;;;15.48;9.55;;;;;;;;;;5034242;28;20532;-51
2022/01/05 03:55:44;;;;;;;17.45;8.52;;;;;;;;;;5034189;28;20226;-51
2022/01/05 03:58:10;;;;;;;20.02;8.20;;;;;;;;;;5034500;28;20238;-54
2022/01/05 04:00:40;;;;;;;18.52;8.82;;;;;;;;;;5034092;28;20567;-53
2022/01/05 04:03:06;;;;;;;16.38;7.45;;;;;;;;;;5034019;28;20172;-53
2022/01/05 04:05:32;;;;;;;14.85;7.20;;;;;;;;;;5033882;28;20241;-53
2022/01/05 04:07:58;;;;;;;18.10;8.37;;;;;;;;;;5033733;28;20513;-53
2022/01/05 04:10:24;;;;;;;14.80;7.22;;;;;;;;;;5033904;28;20945;-53
2022/01/05 04:12:50;;;;;;;17.02;7.65;;;;;;;;;;5033946;28;20233;-53
2022/01/05 04:15:17;;;;;;;9.70;6.70;;;;;;;;;;5033884;28;20174;-53
2022/01/05 04:17:43;;;;;;;10.55;6.10;;;;;;;;;;5033471;28;21047;-54
2022/01/05 04:20:09;;;;;;;11.02;6.32;;;;;;;;;;5033549;28;20222;-53
2022/01/05 04:22:35;;;;;;;19.08;6.50;;;;;;;;;;5033668;28;20170;-53
2022/01/05 04:25:01;;;;;;;20.20;6.63;;;;;;;;;;5033679;28;20167;-53
2022/01/05 04:27:27;;;;;;;13.85;6.00;;;;;;;;;;5033383;28;20822;-53
2022/01/05 04:29:53;;;;;;;7.97;5.00;;;;;;;;;;5033570;28;20738;-53
2022/01/05 04:32:19;;;;;;;10.93;5.80;;;;;;;;;;5033079;28;20210;-53
2022/01/05 04:34:45;;;;;;;12.23;6.20;;;;;;;;;;5033222;28;20406;-53
2022/01/05 04:37:11;;;;;;;10.77;4.80;;;;;;;;;;5033049;28;20199;-54
2022/01/05 04:39:37;;;;;;;15.80;7.03;;;;;;;;;;5033491;28;20762;-53
2022/01/05 04:42:04;;;;;;;9.73;4.60;;;;;;;;;;5033247;28;20184;-54
2022/01/05 04:44:30;;;;;;;17.02;6.10;;;;;;;;;;5033160;28;20455;-53
2022/01/05 04:46:56;;;;;;;15.93;5.20;;;;;;;;;;5032914;28;20178;-53
2022/01/05 04:49:22;;;;;;;13.10;5.25;;;;;;;;;;5033131;28;20267;-53
2022/01/05 04:51:48;;;;;;;16.00;5.10;;;;;;;;;;5033081;28;20631;-53
2022/01/05 04:54:14;;;;;;;12.82;5.47;;;;;;;;;;5033062;28;20438;-53
2022/01/05 04:56:40;;;;;;;14.80;5.43;;;;;;;;;;5032734;28;20226;-53
2022/01/05 04:59:06;;;;;;;13.20;6.20;;;;;;;;;;5032973;28;20403;-53
2022/01/05 05:01:32;;;;;;;6.47;3.93;;;;;;;;;;5032894;28;20974;-53
2022/01/05 05:03:58;;;;;;;9.53;4.83;;;;;;;;;;5032711;28;20410;-53
2022/01/05 05:06:24;;;;;;;16.70;4.30;;;;;;;;;;5032835;28;20494;-53
2022/01/05 05:08:50;;;;;;;17.05;4.30;;;;;;;;;;5032564;28;20549;-54
2022/01/05 05:11:16;;;;;;;11.93;5.05;;;;;;;;;;5032674;28;20188;-54
2022/01/05 05:13:42;;;;;;;12.10;4.30;;;;;;;;;;5032692;28;20230;-53
2022/01/05 05:16:08;;;;;;;10.67;3.70;;;;;;;;;;5032514;28;20195;-53
2022/01/05 05:18:34;;;;;;;7.20;4.40;;;;;;;;;;5032767;28;20395;-53
2022/01/05 05:21:01;;;;;;;9.37;4.40;;;;;;;;;;5032478;28;20188;-53
2022/01/05 05:23:27;;;;;;;9.93;4.40;;;;;;;;;;5032507;28;20482;-53
2022/01/05 05:25:53;;;;;;;8.07;3.60;;;;;;;;;;5032469;28;20217;-54
2022/01/05 05:28:19;;;;;;;5.83;3.17;;;;;;;;;;5032168;28;20175;-53
2022/01/05 05:30:45;;;;;;;14.00;3.57;;;;;;;;;;5032455;28;20713;-53
2022/01/05 05:33:11;;;;;;;4.65;3.00;;;;;;;;;;5032232;28;20406;-53
2022/01/05 05:35:39;;;;;;;14.35;4.10;;;;;;;;;;5032296;28;20199;-53
2022/01/05 05:38:05;;;;;;;11.93;3.80;;;;;;;;;;5031973;28;20568;-53
2022/01/05 05:40:31;;;;;;;15.70;3.42;;;;;;;;;;5032218;28;20246;-54
2022/01/05 05:42:57;;;;;;;9.93;4.20;;;;;;;;;;5032225;28;20163;-53
2022/01/05 05:45:23;;;;;;;12.07;2.70;;;;;;;;;;5031364;28;20226;-53
2022/01/05 05:47:49;;;;;;;6.95;3.55;;;;;;;;;;5031863;28;20171;-53
2022/01/05 05:50:15;;;;;;;6.27;3.40;;;;;;;;;;5032084;28;20267;-54
2022/01/05 05:52:41;;;;;;;11.65;3.90;;;;;;;;;;5032173;28;20430;-53
2022/01/05 05:55:08;;;;;;;13.80;3.38;;;;;;;;;;5032031;28;20217;-54
2022/01/05 05:57:34;;;;;;;4.75;2.47;;;;;;;;;;5031659;28;20191;-53
2022/01/05 06:00:00;;;;;;;11.20;2.90;;;;;;;;;;5031870;28;20194;-53
2022/01/05 06:02:26;;;;;;;8.10;3.40;;;;;;;;;;5032303;28;20168;-53
2022/01/05 06:04:52;;;;;;;14.07;4.30;;;;;;;;;;5031972;28;20403;-53
2022/01/05 06:07:17;;;;;;;11.40;3.43;;;;;;;;;;5031612;28;20171;-53
2022/01/05 06:09:43;;;;;;;6.60;2.53;;;;;;;;;;5031852;28;20405;-53
2022/01/05 06:12:09;;;;;;;7.72;3.28;;;;;;;;;;5031907;28;20426;-54
2022/01/05 06:14:35;;;;;;;15.98;3.70;;;;;;;;;;5031762;28;20171;-53
2022/01/05 06:17:01;;;;;;;8.50;4.00;;;;;;;;;;5031784;28;20254;-53
2022/01/05 06:19:27;;;;;;;11.37;4.10;;;;;;;;;;5031827;28;20918;-53
2022/01/05 06:21:53;;;;;;;10.17;3.50;;;;;;;;;;5031866;28;20497;-53
2022/01/05 06:24:19;;;;;;;9.87;4.63;;;;;;;;;;5031862;28;20430;-53
2022/01/05 06:26:45;;;;;;;12.13;4.03;;;;;;;;;;5031686;28;20525;-52
2022/01/05 06:29:15;;;;;;;8.63;4.10;;;;;;;;;;5031565;28;20438;-51
2022/01/05 06:31:41;;;;;;;9.95;3.45;;;;;;;;;;5031519;28;20925;-51
2022/01/05 06:34:07;;;;;;;15.50;4.47;;;;;;;;;;5031683;28;20203;-51
2022/01/05 06:36:33;;;;;;;5.57;3.40;;;;;;;;;;5031269;28;20248;-51
2022/01/05 06:38:59;;;;;;;10.83;4.30;;;;;;;;;;5031609;28;20165;-51
2022/01/05 06:41:25;;;;;;;6.80;3.70;;;;;;;;;;5031492;28;20932;-51
2022/01/05 06:43:51;;;;;;;6.20;3.70;;;;;;;;;;5030041;28;20529;-51
2022/01/05 06:46:17;;;;;;;9.03;3.70;;;;;;;;;;5031430;28;20406;-51
2022/01/05 06:48:43;;;;;;;5.93;2.90;;;;;;;;;;5031256;28;20493;-51
2022/01/05 06:51:09;;;;;;;7.65;3.92;;;;;;;;;;5031564;28;20558;-51
2022/01/05 06:53:35;;;;;;;10.68;3.00;;;;;;;;;;5031497;28;20164;-51
2022/01/05 06:56:01;;;;;;;14.80;4.75;;;;;;;;;;5032504;28;20235;-51
2022/01/05 06:58:27;;;;;;;14.27;3.73;;;;;;;;;;5034829;28;20210;-51
2022/01/05 07:00:55;;;;;;;10.23;3.17;;;;;;;;;;5035056;28;20422;-51
2022/01/05 07:03:21;;;;;;;12.82;3.58;;;;;;;;;;5035085;28;20489;-53
2022/01/05 07:05:47;;;;;;;9.20;3.47;;;;;;;;;;5035216;28;20452;-51
2022/01/05 07:08:13;;;;;;;14.73;3.35;;;;;;;;;;5034896;28;20416;-51
2022/01/05 07:10:39;;;;;;;8.38;4.20;;;;;;;;;;5034954;28;20734;-51
2022/01/05 07:13:05;;;;;;;6.43;2.90;;;;;;;;;;5034845;28;20254;-51
2022/01/05 07:15:32;;;;;;;16.48;5.25;;;;;;;;;;5034900;28;20176;-51
2022/01/05 07:17:58;;;;;;;6.53;3.20;;;;;;;;;;5034540;28;20198;-51
2022/01/05 07:20:24;;;;;;;8.52;4.40;;;;;;;;;;5034742;28;20207;-51
2022/01/05 07:22:50;;;;;;;8.60;2.97;;;;;;;;;;5034867;28;20172;-51
2022/01/05 07:25:16;;;;;;;20.45;4.05;;;;;;;;;;5034714;28;20597;-51
2022/01/05 07:27:43;;;;;;;18.57;4.20;;;;;;;;;;5034385;28;20251;-51
2022/01/05 07:30:09;;;;;;;7.93;3.53;;;;;;;;;;5034428;28;20562;-51
2022/01/05 07:32:35;;;;;;;9.75;2.90;;;;;;;;;;5034535;28;20178;-53
2022/01/05 07:35:01;;;;;;;7.47;3.00;;;;;;;;;;5034534;28;20172;-51
2022/01/05 07:37:27;;;;;;;12.43;4.35;;;;;;;;;;5034154;28;20550;-52
2022/01/05 07:39:53;;;;;;;6.13;3.65;;;;;;;;;;5034483;28;20652;-53
2022/01/05 07:42:19;;;;;;;9.03;3.37;;;;;;;;;;5034299;28;20199;-51
2022/01/05 07:44:45;;;;;;;13.03;4.10;;;;;;;;;;5034303;28;20856;-52
2022/01/05 07:47:11;;;;;;;9.10;4.13;;;;;;;;;;5034057;28;20411;-52
2022/01/05 07:49:38;;;;;;;8.95;3.67;;;;;;;;;;5034267;28;20783;-52
2022/01/05 07:52:04;;;;;;;13.82;5.32;;;;;;;;;;5034621;28;20188;-52
2022/01/05 07:54:32;;;;;;;7.50;4.68;;;;;;;;;;5034191;28;20632;-52
2022/01/05 07:56:58;;;;;;;8.80;4.15;;;;;;;;;;5033753;28;20189;-52
2022/01/05 07:59:24;;;;;;;18.27;3.83;;;;;;;;;;5034225;28;20587;-52
2022/01/05 08:01:50;;;;;;;12.97;4.20;;;;;;;;;;5033990;28;20511;-52
2022/01/05 08:04:16;;;;;;;11.77;3.53;;;;;;;;;;5034229;28;20410;-52
2022/01/05 08:06:42;;;;;;;9.60;4.87;;;;;;;;;;5033813;28;20426;-52
2022/01/05 08:09:08;;;;;;;8.73;4.18;;;;;;;;;;5033017;28;20438;-52
2022/01/05 08:11:34;;;;;;;19.43;5.77;;;;;;;;;;5033807;28;20227;-52
2022/01/05 08:14:00;;;;;;;16.70;4.60;;;;;;;;;;5033688;28;20414;-52
2022/01/05 08:16:26;;;;;;;10.30;3.70;;;;;;;;;;5033521;28;20937;-55
2022/01/05 08:18:52;;;;;;;9.40;4.10;;;;;;;;;;5033584;28;20398;-52
2022/01/05 08:21:18;;;;;;;13.80;3.67;;;;;;;;;;5032362;28;20618;-52
2022/01/05 08:23:44;;;;;;;10.02;4.30;;;;;;;;;;5033584;28;20579;-52
2022/01/05 08:26:10;;;;;;;6.47;2.95;;;;;;;;;;5033551;28;20172;-52
2022/01/05 08:28:36;;;;;;;11.20;3.97;;;;;;;;;;5033333;28;20664;-52
2022/01/05 08:31:02;;;;;;;13.00;4.05;;;;;;;;;;5033427;28;20426;-52
2022/01/05 08:33:28;;;;;;;9.57;3.88;;;;;;;;;;5033471;28;20171;-52
2022/01/05 08:35:55;;;;;;;18.02;4.60;;;;;;;;;;5033429;28;20160;-52
2022/01/05 08:38:21;;;;;;;15.25;4.22;;;;;;;;;;5032897;28;20690;-52
2022/01/05 08:40:49;;;;;;;5.53;3.25;;;;;;;;;;5033289;28;20598;-52
2022/01/05 08:43:15;;;;;;;21.65;4.07;;;;;;;;;;5031947;28;20658;-52
2022/01/05 08:45:42;;;;;;;5.67;4.03;;;;;;;;;;5033150;28;20190;-52
2022/01/05 08:48:08;;;;;;;29.83;3.85;;;;;;;;;;5032790;28;20414;-52
2022/01/05 08:50:34;;;;;;;8.57;3.58;;;;;;;;;;5033099;28;20191;-52
2022/01/05 08:53:01;;;;;;;5.22;3.90;;;;;;;;;;5032949;28;20671;-52
2022/01/05 08:55:29;;;;;;;5.85;3.10;;;;;;;;;;5032963;28;20168;-52
2022/01/05 08:57:56;;;;;;;7.68;4.55;;;;;;;;;;5032207;28;20565;-52
2022/01/05 09:00:22;;;;;;;10.68;4.38;;;;;;;;;;5032544;28;20249;-52
2022/01/05 09:02:49;;;;;;;11.63;3.58;;;;;;;;;;5032888;28;20160;-52
2022/01/05 09:05:15;;;;;;;4.32;3.30;;;;;;;;;;5032434;28;20172;-53
2022/01/05 09:07:41;;;;;;;19.00;5.03;;;;;;;;;;5032430;28;20236;-52
2022/01/05 09:10:07;;;;;;;8.13;3.90;;;;;;;;;;5032733;28;20402;-52
2022/01/05 09:12:34;;;;;;;14.98;4.03;;;;;;;;;;5032645;28;20402;-53
2022/01/05 09:15:00;;;;;;;14.70;4.13;;;;;;;;;;5032659;28;20186;-52
2022/01/05 09:17:27;;;;;;;4.90;3.33;;;;;;;;;;5032273;28;20191;-53
2022/01/05 09:19:53;;;;;;;11.68;5.15;;;;;;;;;;5032951;28;20398;-52
2022/01/05 09:22:21;;;;;;;4.93;3.17;;;;;;;;;;5032377;28;20183;-52
2022/01/05 09:24:47;;;;;;;10.70;5.00;;;;;;;;;;5041072;28;20415;-52
2022/01/05 09:27:13;;;;;;;13.63;5.38;;;;;;;;;;5052124;28;20217;-52
2022/01/05 09:29:40;;;;;;;11.80;4.90;;;;;;;;;;5052291;28;20171;-51
2022/01/05 09:32:08;;;;;;;9.23;5.20;;;;;;;;;;5052530;28;20777;-52
2022/01/05 09:34:35;;;;;;;9.70;5.13;;;;;;;;;;5052220;28;20170;-52
2022/01/05 09:37:08;;;;;;;14.30;5.20;;;;;;;;;;5051842;28;20264;-53
2022/01/05 09:42:19;;;;;;;9.23;5.43;;;;;;;;;;5051719;28;20709;-51
2022/01/05 09:44:47;;;;;;;17.43;5.80;;;;;;;;;;5051544;28;20186;-51
2022/01/05 09:47:17;;;;;;;10.65;6.40;;;;;;;;;;5050329;28;20959;-52
2022/01/05 09:49:53;;;;;;;14.93;5.85;;;;;;;;;;5051993;28;20177;-52
2022/01/05 09:52:22;;;;;;;12.65;6.15;;;;;;;;;;5051850;28;20218;-51
2022/01/05 09:54:49;;;;;;;14.02;6.55;;;;;;;;;;5051915;28;20174;-52
2022/01/05 09:57:16;;;;;;;9.70;5.95;;;;;;;;;;5051526;28;20256;-53
2022/01/05 09:59:42;;;;;;;17.50;5.78;;;;;;;;;;5052600;28;20159;-55
2022/01/05 10:02:08;;;;;;;13.52;6.55;;;;;;;;;;5051775;28;20623;-54
2022/01/05 10:04:37;;;;;;;11.88;6.57;;;;;;;;;;5051908;28;20198;-54
2022/01/05 10:07:04;;;;;;;12.30;6.07;;;;;;;;;;5051596;28;20220;-54
2022/01/05 10:09:30;;;;;;;27.30;6.55;;;;;;;;;;5051740;28;20181;-54
2022/01/05 10:11:56;;;;;;;21.63;6.07;;;;;;;;;;5051678;28;20195;-54
2022/01/05 10:14:26;;;;;;;11.80;5.40;;;;;;;;;;5051631;28;20166;-55
2022/01/05 10:17:10;;;;;;;15.52;5.70;;;;;;;;;;5053648;28;20260;-54
2022/01/05 10:19:37;;;;;;;22.55;5.60;;;;;;;;;;5053356;28;20163;-54
2022/01/05 10:22:04;;;;;;;15.88;5.47;;;;;;;;;;5053848;28;20183;-54
2022/01/05 10:24:41;;;;;;;9.90;5.35;;;;;;;;;;5053669;28;20178;-54
2022/01/05 10:27:07;;;;;;;9.38;5.82;;;;;;;;;;5052726;28;20254;-54
2022/01/05 10:29:33;;;;;;;12.00;6.57;;;;;;;;;;5052955;28;20192;-54
2022/01/05 10:32:01;;;;;;;19.38;6.18;;;;;;;;;;5055533;28;20226;-54
2022/01/05 10:34:32;;;;;;;10.50;5.53;;;;;;;;;;5056106;28;20163;-53
2022/01/05 10:37:00;;;;;;;11.73;5.78;;;;;;;;;;5055762;28;20210;-54
2022/01/05 10:39:29;;;;;;;14.68;6.45;;;;;;;;;;5056134;28;20167;-54
2022/01/05 10:41:55;;;;;;;10.32;6.20;;;;;;;;;;5055644;28;20463;-53
2022/01/05 10:44:22;;;;;;;11.83;6.80;;;;;;;;;;5056154;28;20183;-53
2022/01/05 10:46:50;;;;;;;13.77;5.90;;;;;;;;;;5055705;28;20397;-52
2022/01/05 10:49:23;;;;;;;9.88;5.45;;;;;;;;;;5056257;28;20194;-52
2022/01/05 10:51:49;;;;;;;17.98;6.65;;;;;;;;;;5055269;28;20181;-53
2022/01/05 10:54:17;;;;;;;7.23;4.63;;;;;;;;;;5056075;28;20173;-53
2022/01/05 10:56:43;;;;;;;11.38;4.55;;;;;;;;;;5055564;28;20449;-53
2022/01/05 10:59:09;;;;;;;7.43;4.35;;;;;;;;;;5056077;28;20194;-53
2022/01/05 11:01:36;;;;;;;19.38;5.85;;;;;;;;;;5055167;28;20187;-54
2022/01/05 11:04:18;;;;;;;10.90;5.15;;;;;;;;;;5049691;28;20175;-53
2022/01/05 11:07:04;;;;;;;5.93;3.67;;;;;;;;;;5042453;28;20176;-51
2022/01/05 11:09:34;;;;;;;5.13;4.53;;;;;;;;;;5035335;28;20168;-52
2022/01/05 11:12:00;;;;;;;7.65;5.13;;;;;;;;;;5034844;28;20199;-51
2022/01/05 11:14:34;;;;;;;8.27;5.07;;;;;;;;;;5034173;28;20171;-51
2022/01/05 11:17:01;;;;;;;9.55;5.40;;;;;;;;;;5034316;28;20492;-51
2022/01/05 11:22:06;;;;;;;18.88;6.20;;;;;;;;;;5439899;23;20269;-47
2022/01/05 11:24:33;;;;;;;7.85;4.68;;;;;;;;;;4994861;28;20184;-47
2022/01/05 11:27:01;;;;;;;6.28;4.32;;;;;;;;;;4995194;28;20287;-48
2022/01/05 11:29:27;;;;;;;7.55;4.80;;;;;;;;;;4995268;28;20292;-49
2022/01/05 11:31:54;;;;;;;17.37;4.70;;;;;;;;;;4994978;28;20699;-47
2022/01/05 11:34:20;;;;;;;6.70;4.53;;;;;;;;;;4995293;28;20486;-47
2022/01/05 11:36:46;;;;;;;9.90;5.33;;;;;;;;;;4996106;28;20677;-48
2022/01/05 11:39:12;;;;;;;10.63;5.25;;;;;;;;;;4995980;28;20407;-49
2022/01/05 11:41:41;;;;;;;10.20;5.80;;;;;;;;;;4995062;28;20715;-48
2022/01/05 11:44:07;;;;;;;7.95;4.75;;;;;;;;;;4994848;28;20768;-48
2022/01/05 11:46:33;;;;;;;7.82;5.05;;;;;;;;;;4995253;28;20244;-48
2022/01/05 11:49:09;;;;;;;12.40;6.25;;;;;;;;;;4995171;28;20644;-48
2022/01/05 11:51:45;;;;;;;10.70;5.65;;;;;;;;;;4994789;28;20181;-48
2022/01/05 11:54:21;;;;;;;10.90;5.60;;;;;;;;;;4995233;28;20157;-48
2022/01/05 11:56:48;;;;;;;13.75;5.60;;;;;;;;;;4995004;28;20192;-48
2022/01/05 11:59:20;;;;;;;12.98;5.40;;;;;;;;;;4994772;28;20256;-48
2022/01/05 12:02:00;;;;;;;12.40;5.40;;;;;;;;;;4994441;28;20300;-48
2022/01/05 12:04:26;;;;;;;13.85;5.07;;;;;;;;;;4994701;28;20168;-48
2022/01/05 12:06:55;;;;;;;9.15;5.72;;;;;;;;;;4993527;28;20196;-49
2022/01/05 12:09:23;;;;;;;13.10;6.30;;;;;;;;;;4994719;28;20162;-48
2022/01/05 12:11:49;;;;;;;16.25;5.60;;;;;;;;;;4994443;28;20181;-48
2022/01/05 12:14:21;;;;;;;13.73;6.27;;;;;;;;;;4995204;28;20260;-49
2022/01/05 12:17:00;;;;;;;17.52;7.10;;;;;;;;;;4995167;28;20462;-49
2022/01/05 12:19:26;;;;;;;10.80;6.05;;;;;;;;;;4994580;28;20169;-49
2022/01/05 12:21:53;;;;;;;15.82;6.90;;;;;;;;;;4994190;28;20185;-50
2022/01/05 12:24:20;;;;;;;12.73;7.53;;;;;;;;;;4994470;28;20660;-48
2022/01/05 12:27:06;;;;;;;10.82;7.43;;;;;;;;;;4994457;28;20181;-50
2022/01/05 12:29:32;;;;;;;11.77;6.63;;;;;;;;;;4994447;28;20269;-49
2022/01/05 12:32:01;;;;;;;10.98;6.30;;;;;;;;;;4994270;28;20192;-49
2022/01/05 12:34:46;;;;;;;10.60;6.55;;;;;;;;;;4994030;28;20255;-49
2022/01/05 12:37:31;;;;;;;17.88;7.53;;;;;;;;;;4994056;28;20294;-49
2022/01/05 12:39:59;;;;;;;10.57;6.35;;;;;;;;;;4994053;28;20187;-50
2022/01/05 12:42:25;;;;;;;16.13;7.25;;;;;;;;;;4993838;28;20187;-49
2022/01/05 12:44:51;;;;;;;14.77;8.00;;;;;;;;;;4993980;28;20551;-49
2022/01/05 12:47:34;;;;;;;15.18;7.53;;;;;;;;;;4994170;28;20400;-48
2022/01/05 12:50:16;;;;;;;19.27;8.57;;;;;;;;;;4993732;28;20584;-49
2022/01/05 12:52:42;;;;;;;18.40;9.18;;;;;;;;;;4993573;28;20189;-49
2022/01/05 12:55:08;;;;;;;16.77;7.80;;;;;;;;;;4993364;28;20169;-48
2022/01/05 12:57:34;;;;;;;21.77;8.90;;;;;;;;;;4993655;28;20459;-48
2022/01/05 13:00:02;;;;;;;22.13;10.60;;;;;;;;;;4993632;28;20276;-48
2022/01/05 13:02:29;;;;;;;16.23;9.10;;;;;;;;;;4993315;28;20424;-49
2022/01/05 13:04:57;;;;;;;21.25;8.95;;;;;;;;;;4993593;28;20644;-48
2022/01/05 13:07:24;;;;;;;16.52;6.63;;;;;;;;;;4993660;28;20173;-48
2022/01/05 13:09:50;;;;;;;23.38;11.27;;;;;;;;;;4993189;28;20169;-48
2022/01/05 13:12:20;;;;;;;14.00;8.50;;;;;;;;;;4993121;28;20199;-49
2022/01/05 13:14:47;;;;;;;15.35;8.80;;;;;;;;;;4993427;28;20891;-49
2022/01/05 13:17:13;;;;;;;20.60;9.23;;;;;;;;;;4993268;28;20672;-49
2022/01/05 13:19:42;;;;;;;14.70;8.50;;;;;;;;;;4993092;28;20367;-49
2022/01/05 13:22:09;;;;;;;16.95;8.40;;;;;;;;;;4993122;28;20630;-49
2022/01/05 13:24:43;;;;;;;15.10;9.60;;;;;;;;;;4993224;28;20755;-49
2022/01/05 13:27:09;;;;;;;16.85;8.82;;;;;;;;;;4993751;28;20591;-49
2022/01/05 13:29:35;;;;;;;18.65;8.13;;;;;;;;;;4993430;28;20177;-49
2022/01/05 13:32:05;;;;;;;10.33;6.67;;;;;;;;;;4992673;28;20320;-48
2022/01/05 13:34:34;;;;;;;16.98;7.82;;;;;;;;;;4993152;28;20914;-49
2022/01/05 13:37:00;;;;;;;13.80;9.60;;;;;;;;;;4992562;28;20250;-49
2022/01/05 13:39:45;;;;;;;10.77;8.40;;;;;;;;;;4992884;28;20171;-48
2022/01/05 13:42:13;;;;;;;13.57;6.68;;;;;;;;;;4992408;28;20185;-47
2022/01/05 13:44:40;;;;;;;9.70;7.55;;;;;;;;;;4993078;28;20181;-48
2022/01/05 13:47:07;;;;;;;17.10;6.97;;;;;;;;;;4992920;28;20177;-49
2022/01/05 13:49:33;;;;;;;10.18;7.60;;;;;;;;;;4992384;28;20543;-49
2022/01/05 13:52:06;;;;;;;10.70;6.28;;;;;;;;;;4992177;28;20276;-49
2022/01/05 13:54:36;;;;;;;14.70;6.55;;;;;;;;;;4992956;28;20219;-48
2022/01/05 13:57:02;;;;;;;13.30;7.13;;;;;;;;;;4992287;28;20331;-49
2022/01/05 13:59:38;;;;;;;12.40;7.75;;;;;;;;;;4992307;28;20191;-48
2022/01/05 14:02:08;;;;;;;9.15;6.50;;;;;;;;;;4991633;28;20680;-48
2022/01/05 14:04:45;;;;;;;11.48;5.22;;;;;;;;;;4992274;28;20160;-48
2022/01/05 14:07:16;;;;;;;26.42;5.97;;;;;;;;;;4992648;28;20180;-48
2022/01/05 14:09:42;;;;;;;16.58;6.97;;;;;;;;;;4988593;28;20179;-49
2022/01/05 14:12:27;;;;;;;14.33;6.53;;;;;;;;;;4992014;28;20749;-49
2022/01/05 14:15:00;;;;;;;13.73;6.38;;;;;;;;;;4992374;28;20483;-48
2022/01/05 14:17:28;;;;;;;22.23;6.95;;;;;;;;;;4992361;28;20219;-49
2022/01/05 14:20:13;;;;;;;17.38;6.97;;;;;;;;;;4992163;28;20244;-50
2022/01/05 14:22:40;;;;;;;16.77;6.35;;;;;;;;;;4991752;28;20651;-49
2022/01/05 14:25:06;;;;;;;13.20;5.80;;;;;;;;;;4991932;28;20623;-48
2022/01/05 14:27:36;;;;;;;14.13;6.55;;;;;;;;;;4992002;28;20183;-49
2022/01/05 14:30:12;;;;;;;14.75;5.50;;;;;;;;;;4991923;28;20892;-49
2022/01/05 14:32:40;;;;;;;15.88;4.90;;;;;;;;;;4991350;28;20425;-48
2022/01/05 14:35:16;;;;;;;12.32;5.78;;;;;;;;;;4991537;28;20219;-48
2022/01/05 14:38:09;;;;;;;19.15;5.43;;;;;;;;;;4992539;28;20215;-49
2022/01/05 14:40:34;;;;;;;16.90;6.10;;;;;;;;;;4989068;28;20247;-49
2022/01/05 14:43:01;;;;;;;9.77;5.10;;;;;;;;;;4991687;28;20169;-49